createdAt,value
2023-03-03T00:01:55.345Z,57.13
2023-03-03T00:04:57.032Z,57.27
2023-03-03T00:07:58.610Z,57.14
2023-03-03T00:11:00.982Z,57.53
2023-03-03T00:14:02.587Z,57.35
2023-03-03T00:17:21.140Z,57.19
2023-03-03T00:20:35.098Z,57.21
2023-03-03T00:23:39.238Z,57.35
2023-03-03T00:26:42.807Z,57.55
2023-03-03T00:29:53.421Z,57.60
2023-03-03T00:32:56.110Z,57.62
2023-03-03T00:36:06.843Z,57.79
2023-03-03T00:39:30.089Z,57.68
2023-03-03T00:42:35.610Z,57.44
2023-03-03T00:45:54.753Z,57.65
2023-03-03T00:48:56.344Z,57.44
2023-03-03T00:51:57.930Z,57.52
2023-03-03T00:54:59.511Z,57.62
2023-03-03T00:58:01.232Z,57.60
2023-03-03T01:01:02.775Z,57.45
2023-03-03T01:04:04.401Z,57.57
2023-03-03T01:07:05.967Z,57.55
2023-03-03T01:10:08.241Z,57.80
2023-03-03T01:13:10.592Z,57.77
2023-03-03T01:16:12.297Z,57.75
2023-03-03T01:19:13.845Z,57.79
2023-03-03T01:22:15.811Z,57.60
2023-03-03T01:25:17.660Z,57.55
2023-03-03T01:28:19.321Z,57.88
2023-03-03T01:31:20.932Z,57.50
2023-03-03T01:34:22.504Z,57.87
2023-03-03T01:37:24.319Z,57.71
2023-03-03T01:40:29.345Z,57.44
2023-03-03T01:43:32.621Z,57.66
2023-03-03T01:46:46.605Z,57.49
2023-03-03T01:49:57.870Z,57.70
2023-03-03T01:53:03.220Z,57.74
2023-03-03T01:56:07.943Z,57.67
2023-03-03T01:59:22.202Z,57.81
2023-03-03T02:02:25.487Z,57.79
2023-03-03T02:05:28.012Z,57.91
2023-03-03T02:08:39.550Z,57.83
2023-03-03T02:11:44.472Z,57.85
2023-03-03T02:14:46.237Z,57.99
2023-03-03T02:17:50.878Z,57.82
2023-03-03T02:21:04.162Z,57.88
2023-03-03T02:24:14.528Z,58.07
2023-03-03T02:27:16.086Z,58.15
2023-03-03T02:30:24.309Z,57.98
2023-03-03T02:33:26.299Z,58.01
2023-03-03T02:36:33.173Z,58.08
2023-03-03T02:39:34.869Z,58.19
2023-03-03T02:42:36.828Z,58.02
2023-03-03T02:45:43.895Z,57.89
2023-03-03T02:48:45.448Z,58.12
2023-03-03T02:51:47.043Z,57.88
2023-03-03T02:54:48.632Z,57.80
2023-03-03T02:57:50.161Z,58.15
2023-03-03T03:00:51.789Z,57.98
2023-03-03T03:03:53.558Z,58.43
2023-03-03T03:06:56.420Z,57.86
2023-03-03T03:09:57.959Z,57.95
2023-03-03T03:12:59.497Z,57.95
2023-03-03T03:16:01.309Z,57.93
2023-03-03T03:19:04.143Z,58.36
2023-03-03T03:22:05.698Z,58.38
2023-03-03T03:25:07.645Z,58.06
2023-03-03T03:28:09.241Z,58.20
2023-03-03T03:31:10.864Z,58.04
2023-03-03T03:34:12.464Z,57.90
2023-03-03T03:37:14.413Z,58.23
2023-03-03T03:40:16.157Z,57.96
2023-03-03T03:43:17.931Z,58.12
2023-03-03T03:46:19.577Z,57.94
2023-03-03T03:49:21.665Z,57.95
2023-03-03T03:52:23.291Z,58.17
2023-03-03T03:55:24.893Z,58.02
2023-03-03T03:58:26.615Z,57.97
2023-03-03T04:01:28.267Z,58.06
2023-03-03T04:04:29.879Z,58.34
2023-03-03T04:07:31.437Z,58.03
2023-03-03T04:10:32.999Z,58.14
2023-03-03T04:13:35.527Z,58.43
2023-03-03T04:16:37.137Z,58.42
2023-03-03T04:19:38.672Z,58.00
2023-03-03T04:22:40.305Z,58.27
2023-03-03T04:25:41.846Z,58.30
2023-03-03T04:28:43.388Z,58.41
2023-03-03T04:31:44.929Z,58.37
2023-03-03T04:34:52.957Z,58.38
2023-03-03T04:37:57.376Z,58.17
2023-03-03T04:40:58.997Z,58.14
2023-03-03T04:44:00.527Z,58.36
2023-03-03T04:47:02.100Z,58.42
2023-03-03T04:50:04.421Z,58.17
2023-03-03T04:53:05.978Z,58.49
2023-03-03T04:56:08.049Z,58.38
2023-03-03T04:59:09.690Z,58.56
2023-03-03T05:02:13.047Z,58.32
2023-03-03T05:05:14.759Z,58.44
2023-03-03T05:08:16.746Z,58.38
2023-03-03T05:11:18.317Z,58.27
2023-03-03T05:14:19.882Z,58.38
2023-03-03T05:17:21.412Z,58.57
2023-03-03T05:20:23.903Z,58.42
2023-03-03T05:23:25.896Z,58.54
2023-03-03T05:26:27.411Z,58.60
2023-03-03T05:29:31.533Z,58.41
2023-03-03T05:32:33.213Z,58.15
2023-03-03T05:35:35.173Z,58.33
2023-03-03T05:38:36.866Z,58.30
2023-03-03T05:41:38.864Z,58.63
2023-03-03T05:44:40.601Z,58.53
2023-03-03T05:47:42.406Z,58.62
2023-03-03T05:50:43.979Z,58.32
2023-03-03T05:53:45.596Z,58.71
2023-03-03T05:56:47.206Z,58.50
2023-03-03T05:59:48.949Z,58.66
2023-03-03T06:02:50.490Z,58.48
2023-03-03T06:05:52.117Z,58.42
2023-03-03T06:08:56.843Z,58.55
2023-03-03T06:11:59.010Z,58.41
2023-03-03T06:15:00.550Z,58.66
2023-03-03T06:18:02.324Z,58.36
2023-03-03T06:21:04.091Z,58.35
2023-03-03T06:24:06.288Z,58.31
2023-03-03T06:27:07.883Z,58.40
2023-03-03T06:30:10.135Z,58.66
2023-03-03T06:33:11.846Z,58.45
2023-03-03T06:36:13.390Z,58.77
2023-03-03T06:39:14.981Z,58.67
2023-03-03T06:42:16.491Z,58.47
2023-03-03T06:45:18.110Z,58.34
2023-03-03T06:48:19.664Z,58.76
2023-03-03T06:51:33.603Z,58.67
2023-03-03T06:54:35.273Z,58.79
2023-03-03T06:57:37.553Z,58.75
2023-03-03T07:00:40.822Z,58.75
2023-03-03T07:03:42.361Z,58.64
2023-03-03T07:06:43.922Z,58.56
2023-03-03T07:09:48.012Z,58.66
2023-03-03T07:12:49.942Z,59.02
2023-03-03T07:15:54.312Z,58.63
2023-03-03T07:19:03.603Z,58.48
2023-03-03T07:22:14.148Z,58.79
2023-03-03T07:25:22.000Z,58.76
2023-03-03T07:28:29.225Z,58.51
2023-03-03T07:31:41.618Z,58.51
2023-03-03T07:34:52.265Z,59.25
2023-03-03T07:37:54.031Z,59.19
2023-03-03T07:40:58.290Z,58.63
2023-03-03T07:44:06.601Z,58.90
2023-03-03T07:47:30.511Z,58.58
2023-03-03T07:50:32.485Z,58.61
2023-03-03T07:53:36.462Z,58.27
2023-03-03T07:56:38.102Z,58.55
2023-03-03T07:59:48.839Z,58.64
2023-03-03T08:02:56.397Z,58.56
2023-03-03T08:05:57.963Z,58.74
2023-03-03T08:09:41.699Z,58.63
2023-03-03T08:12:45.153Z,58.56
2023-03-03T08:15:50.689Z,58.64
2023-03-03T08:18:53.926Z,58.88
2023-03-03T08:22:12.282Z,58.48
2023-03-03T08:25:13.876Z,58.75
2023-03-03T08:28:16.306Z,58.63
2023-03-03T08:31:30.781Z,58.71
2023-03-03T08:34:36.107Z,59.05
2023-03-03T08:37:37.876Z,58.76
2023-03-03T08:40:39.586Z,59.03
2023-03-03T08:43:41.444Z,58.79
2023-03-03T08:46:44.225Z,58.84
2023-03-03T08:49:45.837Z,58.80
2023-03-03T08:52:48.437Z,59.13
2023-03-03T08:55:51.360Z,58.81
2023-03-03T08:59:02.092Z,58.82
2023-03-03T09:02:05.806Z,58.91
2023-03-03T09:05:08.365Z,58.91
2023-03-03T09:08:10.842Z,58.92
2023-03-03T09:11:13.478Z,59.00
2023-03-03T09:14:18.948Z,58.77
2023-03-03T09:17:26.084Z,58.63
2023-03-03T09:20:33.729Z,58.76
2023-03-03T09:23:56.216Z,58.85
2023-03-03T09:26:59.307Z,58.85
2023-03-03T09:30:30.887Z,59.08
2023-03-03T09:33:44.612Z,58.77
2023-03-03T09:36:46.237Z,59.01
2023-03-03T09:39:53.510Z,59.04
2023-03-03T09:43:24.055Z,58.64
2023-03-03T09:46:28.390Z,58.88
2023-03-03T09:49:39.455Z,59.04
2023-03-03T09:53:01.746Z,58.96
2023-03-03T09:56:12.498Z,59.19
2023-03-03T09:59:28.025Z,59.27
2023-03-03T10:02:32.374Z,59.80
2023-03-03T10:05:52.002Z,60.07
2023-03-03T10:08:56.593Z,59.85
2023-03-03T10:12:13.623Z,59.87
2023-03-03T10:15:15.087Z,59.76
2023-03-03T10:18:33.896Z,59.38
2023-03-03T10:21:51.124Z,58.82
2023-03-03T10:25:20.511Z,58.88
2023-03-03T10:28:40.461Z,58.84
2023-03-03T10:31:44.922Z,58.86
2023-03-03T10:35:14.197Z,59.00
2023-03-03T10:38:46.656Z,58.98
2023-03-03T10:42:22.331Z,58.87
2023-03-03T10:45:53.253Z,58.96
2023-03-03T10:49:14.732Z,58.94
2023-03-03T10:52:16.287Z,58.96
2023-03-03T10:55:22.891Z,58.96
2023-03-03T10:58:56.545Z,58.87
2023-03-03T11:02:02.172Z,58.73
2023-03-03T11:05:16.994Z,58.80
2023-03-03T11:08:34.061Z,58.77
2023-03-03T11:11:57.600Z,58.77
2023-03-03T11:14:59.390Z,58.77
2023-03-03T11:18:37.157Z,58.77
2023-03-03T11:21:51.423Z,58.63
2023-03-03T11:25:05.344Z,58.71
2023-03-03T11:28:13.014Z,58.74
2023-03-03T11:31:33.626Z,58.73
2023-03-03T11:35:08.028Z,58.57
2023-03-03T11:38:09.542Z,58.45
2023-03-03T11:41:35.612Z,58.45
2023-03-03T11:45:17.912Z,58.48
2023-03-03T11:48:25.479Z,58.55
2023-03-03T11:51:43.140Z,58.37
2023-03-03T11:54:54.441Z,58.33
2023-03-03T11:58:08.128Z,58.40
2023-03-03T12:01:30.923Z,58.31
2023-03-03T12:04:39.398Z,58.21
2023-03-03T12:07:50.949Z,58.24
2023-03-03T12:11:04.376Z,58.19
2023-03-03T12:14:13.472Z,58.34
2023-03-03T12:17:33.163Z,58.12
2023-03-03T12:21:16.370Z,58.17
2023-03-03T12:24:55.584Z,57.98
2023-03-03T12:28:18.290Z,58.03
2023-03-03T12:32:00.017Z,58.01
2023-03-03T12:35:15.821Z,57.98
2023-03-03T12:38:44.587Z,57.99
2023-03-03T12:41:52.526Z,58.00
2023-03-03T12:45:10.617Z,57.96
2023-03-03T12:48:30.114Z,57.79
2023-03-03T12:51:37.578Z,58.02
2023-03-03T12:55:12.569Z,57.87
2023-03-03T12:58:20.494Z,57.92
2023-03-03T13:02:01.013Z,57.74
2023-03-03T13:05:07.981Z,57.88
2023-03-03T13:08:18.642Z,57.87
2023-03-03T13:11:42.412Z,57.74
2023-03-03T13:14:50.220Z,57.65
2023-03-03T13:18:29.738Z,57.69
2023-03-03T13:22:01.519Z,58.33
2023-03-03T13:25:40.141Z,58.27
2023-03-03T13:28:59.936Z,57.62
2023-03-03T13:32:22.679Z,57.60
2023-03-03T13:35:46.025Z,57.52
2023-03-03T13:38:56.662Z,57.65
2023-03-03T13:42:26.540Z,57.47
2023-03-03T13:45:35.304Z,57.66
2023-03-03T13:49:05.930Z,57.50
2023-03-03T13:52:15.173Z,57.47
2023-03-03T13:55:29.439Z,57.50
2023-03-03T13:58:38.495Z,57.60
2023-03-03T14:02:07.672Z,57.54
2023-03-03T14:05:09.181Z,57.58
2023-03-03T14:08:48.060Z,57.36
2023-03-03T14:11:57.755Z,57.47
2023-03-03T14:15:04.223Z,57.43
2023-03-03T14:18:34.504Z,57.43
2023-03-03T14:21:43.260Z,57.42
2023-03-03T14:25:07.690Z,57.38
2023-03-03T14:28:14.124Z,57.47
2023-03-03T14:31:21.752Z,57.32
2023-03-03T14:34:23.314Z,57.48
2023-03-03T14:37:24.861Z,57.35
2023-03-03T14:40:35.611Z,57.30
2023-03-03T14:43:40.833Z,57.33
2023-03-03T14:46:45.013Z,57.31
2023-03-03T14:49:46.878Z,57.28
2023-03-03T14:53:08.623Z,57.27
2023-03-03T14:56:24.226Z,57.30
2023-03-03T14:59:27.074Z,57.21
2023-03-03T15:02:38.836Z,57.28
2023-03-03T15:05:50.000Z,57.16
2023-03-03T15:08:51.569Z,57.25
2023-03-03T15:11:54.641Z,57.21
2023-03-03T15:15:20.809Z,57.25
2023-03-03T15:18:22.587Z,57.09
2023-03-03T15:21:32.238Z,57.25
2023-03-03T15:25:07.911Z,57.17
2023-03-03T15:28:33.013Z,57.04
2023-03-03T15:31:35.219Z,57.02
2023-03-03T15:34:36.816Z,57.27
2023-03-03T15:37:55.860Z,57.18
2023-03-03T15:41:00.301Z,57.18
2023-03-03T15:44:14.870Z,56.99
2023-03-03T15:47:24.265Z,57.04
2023-03-03T15:50:35.393Z,57.09
2023-03-03T15:53:52.899Z,56.99
2023-03-03T15:56:58.933Z,57.07
2023-03-03T16:00:03.652Z,57.11
2023-03-03T16:03:20.830Z,57.13
2023-03-03T16:06:26.611Z,57.14
2023-03-03T16:09:56.556Z,57.18
2023-03-03T16:13:06.909Z,56.80
2023-03-03T16:16:17.441Z,57.14
2023-03-03T16:19:37.664Z,56.96
2023-03-03T16:22:45.185Z,57.09
2023-03-03T16:26:05.228Z,57.07
2023-03-03T16:29:18.522Z,56.94
2023-03-03T16:33:04.880Z,57.02
2023-03-03T16:36:18.517Z,56.85
2023-03-03T16:39:44.413Z,57.00
2023-03-03T16:42:53.177Z,57.01
2023-03-03T16:46:06.545Z,56.91
2023-03-03T16:49:36.063Z,56.89
2023-03-03T16:53:14.872Z,56.97
2023-03-03T16:56:38.852Z,56.93
2023-03-03T16:59:56.259Z,56.94
2023-03-03T17:03:09.585Z,56.96
2023-03-03T17:06:29.504Z,56.64
2023-03-03T17:09:34.034Z,57.02
2023-03-03T17:13:01.875Z,56.77
2023-03-03T17:16:09.458Z,56.80
2023-03-03T17:20:00.786Z,56.60
2023-03-03T17:23:26.425Z,56.72
2023-03-03T17:26:56.765Z,56.75
2023-03-03T17:30:04.245Z,56.70
2023-03-03T17:33:24.062Z,56.77
2023-03-03T17:36:25.614Z,56.78
2023-03-03T17:39:38.671Z,56.51
2023-03-03T17:43:17.578Z,56.69
2023-03-03T17:46:28.068Z,56.82
2023-03-03T17:49:54.757Z,56.56
2023-03-03T17:53:14.274Z,56.63
2023-03-03T17:56:28.172Z,56.64
2023-03-03T18:00:12.106Z,56.70
2023-03-03T18:04:02.031Z,56.62
2023-03-03T18:07:06.510Z,56.62
2023-03-03T18:10:33.131Z,56.62
2023-03-03T18:13:51.281Z,56.49
2023-03-03T18:16:55.874Z,56.63
2023-03-03T18:20:00.683Z,56.46
2023-03-03T18:23:20.509Z,56.57
2023-03-03T18:26:42.064Z,56.57
2023-03-03T18:30:24.997Z,56.72
2023-03-03T18:33:35.887Z,56.51
2023-03-03T18:36:51.817Z,56.54
2023-03-03T18:40:02.197Z,56.57
2023-03-03T18:43:39.912Z,56.43
2023-03-03T18:46:46.875Z,56.38
2023-03-03T18:49:53.014Z,56.40
2023-03-03T18:53:19.325Z,56.44
2023-03-03T18:57:05.095Z,56.39
2023-03-03T19:00:27.362Z,56.43
2023-03-03T19:03:28.931Z,56.36
2023-03-03T19:06:36.420Z,56.29
2023-03-03T19:10:02.880Z,56.32
2023-03-03T19:13:27.452Z,56.38
2023-03-03T19:16:30.845Z,56.35
2023-03-03T19:19:34.938Z,56.27
2023-03-03T19:22:52.039Z,56.28
2023-03-03T19:26:24.775Z,56.31
2023-03-03T19:29:32.340Z,56.32
2023-03-03T19:33:12.560Z,56.33
2023-03-03T19:36:36.013Z,56.26
2023-03-03T19:39:55.310Z,56.24
2023-03-03T19:43:27.212Z,56.37
2023-03-03T19:46:56.308Z,56.34
2023-03-03T19:50:05.328Z,56.34
2023-03-03T19:53:30.908Z,56.23
2023-03-03T19:56:38.325Z,56.21
2023-03-03T19:59:53.476Z,56.24
2023-03-03T20:03:03.965Z,56.11
2023-03-03T20:06:08.448Z,56.33
2023-03-03T20:09:29.791Z,56.22
2023-03-03T20:12:53.149Z,56.30
2023-03-03T20:16:16.102Z,56.42
2023-03-03T20:19:41.835Z,56.23
2023-03-03T20:22:58.418Z,56.23
2023-03-03T20:26:15.477Z,56.26
2023-03-03T20:29:37.336Z,56.06
2023-03-03T20:33:06.906Z,56.27
2023-03-03T20:36:29.924Z,56.35
2023-03-03T20:40:02.697Z,56.22
2023-03-03T20:43:34.034Z,56.28
2023-03-03T20:46:47.723Z,56.40
2023-03-03T20:50:12.113Z,56.44
2023-03-03T20:53:34.730Z,56.35
2023-03-03T20:56:44.258Z,56.28
2023-03-03T21:00:00.563Z,56.30
2023-03-03T21:03:08.010Z,56.40
2023-03-03T21:06:21.038Z,56.56
2023-03-03T21:09:29.346Z,56.30
2023-03-03T21:12:31.838Z,56.30
2023-03-03T21:15:35.674Z,56.42
2023-03-03T21:18:37.256Z,56.27
2023-03-03T21:21:45.293Z,56.39
2023-03-03T21:24:50.669Z,56.25
2023-03-03T21:27:52.219Z,56.30
2023-03-03T21:31:10.183Z,56.53
2023-03-03T21:34:27.059Z,56.47
2023-03-03T21:37:50.304Z,56.29
2023-03-03T21:41:00.384Z,56.44
2023-03-03T21:44:01.948Z,56.56
2023-03-03T21:47:05.159Z,56.44
2023-03-03T21:50:07.559Z,56.43
2023-03-03T21:53:09.120Z,56.29
2023-03-03T21:56:13.870Z,56.42
2023-03-03T21:59:16.214Z,56.29
2023-03-03T22:02:17.798Z,56.38
2023-03-03T22:05:19.364Z,56.44
2023-03-03T22:08:22.656Z,56.33
2023-03-03T22:11:24.433Z,56.37
2023-03-03T22:14:26.118Z,56.38
2023-03-03T22:17:28.173Z,56.32
2023-03-03T22:20:29.998Z,56.41
2023-03-03T22:23:32.767Z,56.45
2023-03-03T22:26:35.188Z,56.64
2023-03-03T22:29:36.729Z,56.64
2023-03-03T22:32:38.389Z,56.63
2023-03-03T22:35:40.024Z,56.61
2023-03-03T22:38:41.954Z,56.44
2023-03-03T22:41:43.525Z,56.52
2023-03-03T22:44:46.088Z,56.59
2023-03-03T22:47:47.703Z,56.79
2023-03-03T22:50:49.597Z,56.53
2023-03-03T22:53:51.178Z,56.51
2023-03-03T22:56:52.686Z,56.61
2023-03-03T22:59:54.270Z,56.60
2023-03-03T23:02:55.915Z,56.46
2023-03-03T23:05:57.455Z,56.50
2023-03-03T23:08:59.021Z,56.77
2023-03-03T23:12:00.581Z,56.72
2023-03-03T23:15:02.232Z,56.65
2023-03-03T23:18:04.104Z,56.56
2023-03-03T23:21:05.737Z,56.68
2023-03-03T23:24:07.859Z,56.68
2023-03-03T23:27:10.981Z,56.87
2023-03-03T23:30:15.322Z,56.67
2023-03-03T23:33:17.103Z,56.65
2023-03-03T23:36:18.651Z,56.74
2023-03-03T23:39:20.236Z,56.81
2023-03-03T23:42:21.821Z,56.76
2023-03-03T23:45:23.515Z,56.80
2023-03-03T23:48:25.275Z,56.74
2023-03-03T23:51:26.801Z,56.76
2023-03-03T23:54:28.585Z,56.97
2023-03-03T23:57:30.167Z,57.08
